Flight Track Log - Related Links

Times and Time Zones

All times are in EDT time to prevent confusion due to time zone crossing. See the CSN6923 flight status page for this flight to view local times or setup timezone preferences in your user account.

Time Position Orientation Groundspeed Altitude Reporting Facility
EDT Latitude Longitude Course Direction KTS MPH feet Rate Location/Type
Fri 08:54:00 AM 22.8734 112.9215 286° West  Level Estimated
Fri 08:55:00 AM 22.9023 112.8099 286° West  Level Estimated
Fri 08:56:00 AM 22.9311 112.6983 286° West  Level Estimated
Fri 08:57:00 AM 22.9598 112.5866 286° West  Level Estimated
Fri 08:58:00 AM 22.9885 112.4749 286° West  Level Estimated
Fri 08:59:00 AM 23.0170 112.3631 286° West  Level Estimated
Fri 09:00:00 AM 23.0455 112.2513 286° West  Level Estimated
Fri 09:01:00 AM 23.0740 112.1395 285° West  Level Estimated
Fri 09:02:00 AM 23.1023 112.0275 285° West  Level Estimated
Fri 09:03:00 AM 23.1306 111.9156 285° West  Level Estimated
Fri 09:04:00 AM 23.1588 111.8036 285° West  Level Estimated
Fri 09:05:00 AM 23.1868 111.6915 285° West  Level Estimated
Fri 09:06:00 AM 23.2149 111.5794 285° West  Level Estimated
Fri 09:07:00 AM 23.2428 111.4673 285° West  Level Estimated
Fri 09:08:00 AM 23.2707 111.3551 285° West  Level Estimated
Fri 09:09:00 AM 23.2985 111.2429 285° West  Level Estimated
Fri 09:10:00 AM 23.3262 111.1306 285° West  Level Estimated
Fri 09:11:00 AM 23.3538 111.0182 285° West  Level Estimated
Fri 09:12:00 AM 23.3814 110.9059 285° West  Level Estimated
Fri 09:13:00 AM 23.4088 110.7934 285° West  Level Estimated
Fri 09:14:00 AM 23.4362 110.6810 285° West  Level Estimated
Fri 09:15:00 AM 23.4635 110.5684 285° West  Level Estimated
Fri 09:16:00 AM 23.4908 110.4559 285° West  Level Estimated
Fri 09:17:00 AM 23.5179 110.3433 285° West  Level Estimated
Fri 09:18:00 AM 23.5450 110.2306 285° West  Level Estimated
Fri 09:19:00 AM 23.5719 110.1179 285° West  Level Estimated
Fri 09:20:00 AM 23.5988 110.0051 285° West  Level Estimated
Fri 09:21:00 AM 23.6257 109.8923 285° West  Level Estimated
Fri 09:22:00 AM 23.6524 109.7795 285° West  Level Estimated
Fri 09:23:00 AM 23.6791 109.6666 284° West  Level Estimated
Fri 09:24:00 AM 23.7056 109.5537 284° West  Level Estimated
Fri 09:25:00 AM 23.7321 109.4407 284° West  Level Estimated
Fri 09:26:00 AM 23.7585 109.3277 284° West  Level Estimated
Fri 09:27:00 AM 23.7848 109.2146 284° West  Level Estimated
Fri 09:28:00 AM 23.8111 109.1015 284° West  Level Estimated
Fri 09:29:00 AM 23.8372 108.9883 284° West  Level Estimated
Fri 09:30:00 AM 23.8633 108.8751 284° West  Level Estimated
Fri 09:31:00 AM 23.8893 108.7618 284° West  Level Estimated
Fri 09:32:00 AM 23.9152 108.6486 284° West  Level Estimated
Fri 09:33:00 AM 23.9411 108.5352 284° West  Level Estimated
Fri 09:34:00 AM 23.9668 108.4218 284° West  Level Estimated
Fri 09:35:00 AM 23.9925 108.3084 284° West  Level Estimated
Fri 09:36:00 AM 24.0181 108.1949 284° West  Level Estimated
Fri 09:37:00 AM 24.0436 108.0814 284° West  Level Estimated
Fri 09:38:00 AM 24.0690 107.9678 284° West  Level Estimated
Fri 09:39:00 AM 24.0943 107.8542 284° West  Level Estimated
Fri 09:40:00 AM 24.1196 107.7405 284° West  Level Estimated
Fri 09:41:00 AM 24.1447 107.6268 284° West  Level Estimated
Fri 09:42:00 AM 24.1698 107.5130 284° West  Level Estimated
Fri 09:43:00 AM 24.1948 107.3992 284° West  Level Estimated
Fri 09:44:00 AM 24.2197 107.2854 284° West  Level Estimated
Fri 09:45:00 AM 24.2445 107.1715 283° West  Level Estimated
Fri 09:46:00 AM 24.2693 107.0576 283° West  Level Estimated
Fri 09:47:00 AM 24.2939 106.9436 283° West  Level Estimated
Fri 09:48:00 AM 24.3185 106.8296 283° West  Level Estimated
Fri 09:49:00 AM 24.3430 106.7156 283° West  Level Estimated
Fri 09:50:00 AM 24.3673 106.6014 283° West  Level Estimated
Fri 09:51:00 AM 24.3917 106.4873 283° West  Level Estimated
Fri 09:52:00 AM 24.4159 106.3731 283° West  Level Estimated
Fri 09:53:00 AM 24.4400 106.2589 283° West  Level Estimated
Fri 09:54:00 AM 24.4641 106.1446 283° West  Level Estimated
Fri 09:55:00 AM 24.4881 106.0303 283° West  Level Estimated
Fri 09:56:00 AM 24.5119 105.9159 283° West  Level Estimated
Fri 09:57:00 AM 24.5357 105.8015 283° West  Level Estimated
Fri 09:58:00 AM 24.5595 105.6870 283° West  Level Estimated
Fri 09:59:00 AM 24.5831 105.5725 283° West  Level Estimated
Fri 10:00:00 AM 24.6066 105.4580 283° West  Level Estimated
Fri 10:01:00 AM 24.6301 105.3434 283° West  Level Estimated
Fri 10:02:00 AM 24.6534 105.2288 283° West  Level Estimated
Fri 10:03:00 AM 24.6767 105.1141 283° West  Level Estimated
Fri 10:04:00 AM 24.6999 104.9994 283° West  Level Estimated
Fri 10:05:00 AM 24.7230 104.8846 283° West  Level Estimated
Fri 10:06:00 AM 24.7460 104.7698 282° West  Level Estimated
Fri 10:07:00 AM 24.7689 104.6550 282° West  Level Estimated
Fri 10:08:00 AM 24.7918 104.5401 282° West  Level Estimated
Fri 10:09:00 AM 24.8145 104.4252 282° West  Level Estimated
Fri 10:10:00 AM 24.8372 104.3102 282° West  Level Estimated
Fri 10:11:00 AM 24.8598 104.1952 282° West  Level Estimated
Fri 10:12:00 AM 24.8823 104.0802 282° West  Level Estimated
Fri 10:13:00 AM 24.9047 103.9651 282° West  Level Estimated
Fri 10:14:00 AM 24.9270 103.8500 282° West  Level Estimated
Fri 10:15:00 AM 24.9492 103.7348 282° West  Level Estimated
Fri 10:16:00 AM 24.9713 103.6196 282° West  Level Estimated
Fri 10:17:00 AM 24.9934 103.5043 282° West  Level Estimated
Fri 10:18:00 AM 25.0153 103.3890 282° West  Level Estimated
Fri 10:19:00 AM 25.0372 103.2737 282° West  Level Estimated
Fri 10:20:00 AM 25.0590 103.1583 282° West  Level Estimated
Fri 10:21:00 AM 25.0807 103.0428 282° West  Level Estimated
Fri 10:22:00 AM 25.1019 102.9292 282° West  Level Estimated
Fri 10:23:00 AM 25.1019 102.9292 326° Northwest  Level Estimated
Fri 10:24:00 AM 25.1019 102.9292 326° Northwest  Level Estimated
Fri 10:25:00 AM 25.1019 102.9292 326° Northwest  Level Estimated
Fri 10:26:00 AM 25.1019 102.9292 326° Northwest  Level Estimated
Fri 10:27:00 AM 25.1019 102.9292 326° Northwest  Level Estimated
Fri 10:28:00 AM 25.1019 102.9292 326° Northwest  Level Estimated
Fri 10:29:00 AM 25.1019 102.9292 326° Northwest  Level Estimated
Fri 10:30:00 AM 25.1019 102.9292 326° Northwest  Level Estimated
Fri 10:31:00 AM 25.1019 102.9292 326° Northwest  Level Estimated
Fri 10:32:00 AM 25.1019 102.9292 326° Northwest  Level Estimated
Fri 10:33:00 AM 25.1019 102.9292 326° Northwest  Level Estimated
Fri 10:34:00 AM 25.1019 102.9292 326° Northwest  Level Estimated
Fri 10:35:00 AM 25.1019 102.9292 326° Northwest  Level Estimated
Fri 10:36:00 AM 25.1019 102.9292 326° Northwest  Level Estimated
Fri 10:37:00 AM 25.1019 102.9292 326° Northwest  Level Estimated
Fri 10:38:00 AM 25.1019 102.9292 326° Northwest  Level Estimated
Fri 10:39:00 AM 25.1019 102.9292 326° Northwest  Level Estimated
Fri 10:40:00 AM 25.1019 102.9292 326° Northwest  Level Estimated

Login

Don't have an account? Register now (free) for customized features, flight alerts, and more!